Time;durP1;ratioP1;P1;durP2;ratioP2;P2;SDS_P1;SDS_P2;PMS_P1;PMS_P2;Temp;Humidity;BMP_temperature;BMP_pressure;BME280_temperature;BME280_humidity;BME280_pressure;Samples;Min_cycle;Max_cycle;Signal;HPM_P1;HPM_P2
2022/02/02 00:00:38;;;;;;;5.07;1.30;;;5.20;99.90;;;;;;2098120;28;20029;-74
2022/02/02 00:02:51;;;;;;;6.25;1.77;;;5.20;99.90;;;;;;2097331;28;20068;-72
2022/02/02 00:03:54;;;;;;;9.65;1.98;;;5.10;99.90;;;;;;2105291;28;20032;-73
2022/02/02 00:05:04;;;;;;;8.27;1.80;;;5.10;99.90;;;;;;2097110;28;20427;-72
2022/02/02 00:06:13;;;;;;;8.93;2.15;;;5.10;99.90;;;;;;2096614;28;20040;-72
2022/02/02 00:09:21;;;;;;;10.77;2.40;;;5.10;99.90;;;;;;2105844;28;20444;-74
2022/02/02 00:13:13;;;;;;;13.52;2.80;;;5.00;99.90;;;;;;2105673;28;20112;-73
2022/02/02 00:16:45;;;;;;;14.65;3.15;;;5.10;99.90;;;;;;2106414;28;20036;-72
2022/02/02 00:17:55;;;;;;;11.57;2.85;;;5.10;99.90;;;;;;2105483;28;20043;-72
2022/02/02 00:19:01;;;;;;;13.38;3.33;;;5.10;99.90;;;;;;2105769;28;20032;-73
2022/02/02 00:20:17;;;;;;;12.45;2.83;;;5.10;99.90;;;;;;2105968;28;20066;-75
2022/02/02 00:22:27;;;;;;;15.38;3.47;;;5.10;99.90;;;;;;2110338;28;20024;-76
2022/02/02 00:23:34;;;;;;;14.55;3.42;;;5.10;99.90;;;;;;2107252;28;20483;-74
2022/02/02 00:25:46;;;;;;;13.18;3.22;;;5.10;99.90;;;;;;2106054;28;20027;-72
2022/02/02 00:26:54;;;;;;;12.73;3.03;;;5.20;99.90;;;;;;2106207;28;20075;-74
2022/02/02 00:27:58;;;;;;;11.98;3.05;;;5.20;99.90;;;;;;2105033;28;20032;-74
2022/02/02 00:29:05;;;;;;;18.63;3.40;;;5.20;99.90;;;;;;2097581;28;20029;-76
2022/02/02 00:30:10;;;;;;;13.48;3.10;;;5.20;99.90;;;;;;2105618;28;20107;-76
2022/02/02 00:31:17;;;;;;;17.25;3.33;;;5.20;99.90;;;;;;2097442;28;20475;-75
2022/02/02 00:33:47;;;;;;;15.00;3.60;;;5.30;99.90;;;;;;2105896;28;20079;-75
2022/02/02 00:34:51;;;;;;;16.27;3.38;;;5.30;99.90;;;;;;2105107;28;20028;-75
2022/02/02 00:36:03;;;;;;;14.95;3.30;;;5.20;99.90;;;;;;2096353;28;20111;-75
2022/02/02 00:37:04;;;;;;;13.52;2.97;;;5.20;99.90;;;;;;2105419;28;20132;-75
2022/02/02 00:38:04;;;;;;;15.93;3.47;;;5.20;99.90;;;;;;2105770;28;20036;-74
2022/02/02 00:39:05;;;;;;;18.38;3.80;;;5.30;99.90;;;;;;2104975;28;20498;-74
2022/02/02 00:40:06;;;;;;;18.00;3.97;;;5.30;99.90;;;;;;2096780;28;20032;-74
2022/02/02 00:41:07;;;;;;;14.68;3.58;;;5.30;99.90;;;;;;2105431;28;20032;-74
2022/02/02 00:42:11;;;;;;;13.10;3.53;;;5.30;99.90;;;;;;2096693;28;20086;-74
2022/02/02 00:43:11;;;;;;;14.93;3.33;;;5.30;99.90;;;;;;2097316;28;20040;-73
2022/02/02 00:44:15;;;;;;;19.05;4.00;;;5.30;99.90;;;;;;2105342;28;20028;-72
2022/02/02 00:45:16;;;;;;;18.15;3.80;;;5.30;99.90;;;;;;2097019;28;20060;-73
2022/02/02 00:46:22;;;;;;;17.95;3.53;;;5.30;99.90;;;;;;2104701;28;20024;-72
2022/02/02 00:47:24;;;;;;;20.25;3.90;;;5.30;99.90;;;;;;2105662;28;20418;-72
2022/02/02 00:48:27;;;;;;;23.13;3.90;;;5.30;99.90;;;;;;2105440;28;20475;-74
2022/02/02 00:49:28;;;;;;;24.17;3.88;;;5.40;99.90;;;;;;2104858;28;20105;-73
2022/02/02 00:50:29;;;;;;;17.42;3.67;;;5.40;99.90;;;;;;2105127;28;20089;-71
2022/02/02 00:52:06;;;;;;;20.35;3.83;;;5.40;99.90;;;;;;2105459;28;20036;-70
2022/02/02 00:53:02;;;;;;;20.58;3.47;;;5.40;99.90;;;;;;2103303;28;20040;-72
2022/02/02 00:54:03;;;;;;;19.02;3.60;;;5.40;99.90;;;;;;2103932;28;20024;-72
2022/02/02 00:55:05;;;;;;;16.20;3.33;;;5.40;99.90;;;;;;2095924;28;20557;-71
2022/02/02 00:56:05;;;;;;;16.25;3.47;;;5.40;99.90;;;;;;2103625;28;20032;-72
2022/02/02 00:57:06;;;;;;;21.02;4.00;;;5.40;99.90;;;;;;2104707;28;20032;-71
2022/02/02 00:58:07;;;;;;;20.35;3.53;;;5.40;99.90;;;;;;2101739;28;20035;-72
2022/02/02 00:59:07;;;;;;;21.50;3.97;;;5.40;99.90;;;;;;2104801;28;20032;-72
2022/02/02 01:00:09;;;;;;;17.00;3.80;;;5.50;99.90;;;;;;2104939;28;20039;-71
2022/02/02 01:01:09;;;;;;;18.75;3.72;;;5.50;99.90;;;;;;2096410;28;20082;-71
2022/02/02 01:02:12;;;;;;;19.38;4.20;;;5.50;99.90;;;;;;2096114;28;20038;-71
2022/02/02 01:03:13;;;;;;;19.23;3.53;;;5.50;99.90;;;;;;2096784;28;20754;-71
2022/02/02 01:04:14;;;;;;;17.65;3.72;;;5.50;99.90;;;;;;2104901;28;20119;-71
2022/02/02 01:05:14;;;;;;;14.90;3.60;;;5.50;99.90;;;;;;2104723;28;20617;-71
2022/02/02 01:06:18;;;;;;;19.17;3.75;;;5.50;99.90;;;;;;2100516;28;20077;-70
2022/02/02 01:07:43;;;;;;;14.60;3.30;;;5.50;99.90;;;;;;2101846;28;20082;-71
2022/02/02 01:09:11;;;;;;;22.42;4.20;;;5.50;99.90;;;;;;2098734;28;20082;-70
2022/02/02 01:10:24;;;;;;;20.40;3.72;;;5.50;99.90;;;;;;2092297;28;20025;-70
2022/02/02 01:12:51;;;;;;;21.77;4.05;;;5.50;99.90;;;;;;2099812;28;20021;-71
2022/02/02 01:18:16;;;;;;;19.92;3.90;;;5.50;99.90;;;;;;2104787;28;20020;-72
2022/02/02 01:20:05;;;;;;;21.25;4.03;;;5.50;99.90;;;;;;2105558;28;20027;-72
2022/02/02 01:21:16;;;;;;;19.77;4.03;;;5.50;99.90;;;;;;2096788;28;20028;-70
2022/02/02 01:22:19;;;;;;;20.08;4.03;;;5.50;99.90;;;;;;2104640;28;20467;-69
2022/02/02 01:28:22;;;;;;;19.70;4.15;;;5.60;99.90;;;;;;2096312;28;20172;-70
2022/02/02 01:29:23;;;;;;;24.00;4.22;;;5.60;99.90;;;;;;2099227;28;20123;-70
2022/02/02 01:30:24;;;;;;;19.33;3.90;;;5.60;99.90;;;;;;2093381;28;20747;-70
2022/02/02 01:31:25;;;;;;;18.58;4.03;;;5.60;99.90;;;;;;2090848;28;20032;-69
2022/02/02 01:32:25;;;;;;;20.30;4.28;;;5.60;99.90;;;;;;2104621;28;20051;-69
2022/02/02 01:33:27;;;;;;;21.73;4.25;;;5.70;99.90;;;;;;2104791;28;20028;-70
2022/02/02 01:34:27;;;;;;;19.90;4.05;;;5.70;99.90;;;;;;2104235;28;20028;-70
2022/02/02 01:35:28;;;;;;;16.55;4.10;;;5.70;99.90;;;;;;2104298;28;20035;-70
2022/02/02 01:36:29;;;;;;;21.20;3.92;;;5.70;99.90;;;;;;2096340;28;20079;-70
2022/02/02 01:37:31;;;;;;;20.38;4.18;;;5.70;99.90;;;;;;2104772;28;20101;-70
2022/02/02 01:38:34;;;;;;;23.58;4.22;;;5.70;99.90;;;;;;2105201;28;20092;-70
2022/02/02 01:39:35;;;;;;;21.58;4.47;;;5.70;99.90;;;;;;2105163;28;20428;-69
2022/02/02 01:40:41;;;;;;;27.30;4.10;;;5.70;99.90;;;;;;2105113;28;20119;-70
2022/02/02 01:41:44;;;;;;;23.02;4.15;;;5.70;99.90;;;;;;2105184;28;20032;-70
2022/02/02 01:42:52;;;;;;;20.20;4.15;;;5.70;99.90;;;;;;2104583;28;20031;-69
2022/02/02 01:44:02;;;;;;;18.45;4.38;;;5.70;99.90;;;;;;2104594;28;20085;-70
2022/02/02 01:45:15;;;;;;;21.38;4.10;;;5.70;99.90;;;;;;2105090;28;20036;-70
2022/02/02 01:46:19;;;;;;;19.90;4.38;;;5.70;99.90;;;;;;2104006;28;20032;-69
2022/02/02 01:47:21;;;;;;;22.40;4.20;;;5.70;99.90;;;;;;2104559;28;20084;-70
2022/02/02 01:53:10;;;;;;;23.23;4.80;;;5.50;99.90;;;;;;2105008;28;20054;-70
2022/02/02 01:55:16;;;;;;;22.92;4.63;;;5.40;99.90;;;;;;2103194;28;20020;-70
2022/02/02 01:55:42;;;;;;;21.58;4.13;;;5.40;99.90;;;;;;2083255;28;20896;-69
2022/02/02 01:56:42;;;;;;;27.00;5.10;;;5.30;99.90;;;;;;2095927;28;20143;-71
2022/02/02 01:58:06;;;;;;;26.95;5.03;;;5.30;99.90;;;;;;2101739;28;20032;-70
2022/02/02 01:59:22;;;;;;;22.65;4.55;;;5.20;99.90;;;;;;2097213;28;20021;-70
2022/02/02 02:00:25;;;;;;;30.75;5.03;;;5.10;99.90;;;;;;2104864;28;20553;-70
2022/02/02 02:01:27;;;;;;;27.70;5.10;;;5.10;99.90;;;;;;2104797;28;20021;-70
2022/02/02 02:02:28;;;;;;;24.25;4.78;;;5.10;99.90;;;;;;2104394;28;20024;-71
2022/02/02 02:03:28;;;;;;;28.77;5.25;;;5.10;99.90;;;;;;2096084;28;20043;-71
2022/02/02 02:04:29;;;;;;;29.08;4.47;;;5.10;99.90;;;;;;2104359;28;20368;-71
2022/02/02 02:05:30;;;;;;;22.60;4.82;;;5.10;99.90;;;;;;2104482;28;20059;-70
2022/02/02 02:06:30;;;;;;;23.98;4.38;;;5.10;99.90;;;;;;2104971;28;20016;-70
2022/02/02 02:07:31;;;;;;;25.80;4.70;;;5.10;99.90;;;;;;2104910;28;20450;-71
2022/02/02 02:08:35;;;;;;;28.10;4.95;;;5.10;99.90;;;;;;2104906;28;20031;-71
2022/02/02 02:09:36;;;;;;;21.73;4.03;;;5.10;99.90;;;;;;2104457;28;20604;-71
2022/02/02 02:10:37;;;;;;;22.95;4.30;;;5.20;99.90;;;;;;2104289;28;20031;-71
2022/02/02 02:11:42;;;;;;;20.67;4.53;;;5.20;99.90;;;;;;2104398;28;20024;-70
2022/02/02 02:12:52;;;;;;;28.42;5.00;;;5.20;99.90;;;;;;2105322;28;20032;-70
2022/02/02 02:15:05;;;;;;;24.05;4.75;;;5.20;99.90;;;;;;2097377;28;20021;-70
2022/02/02 02:16:06;;;;;;;25.30;4.82;;;5.20;99.90;;;;;;2095982;28;20020;-70
2022/02/02 02:17:07;;;;;;;25.85;4.53;;;5.20;99.90;;;;;;2105002;28;20497;-70
2022/02/02 02:18:08;;;;;;;25.67;4.75;;;5.20;99.90;;;;;;2104394;28;20103;-70
2022/02/02 02:19:08;;;;;;;23.98;4.72;;;5.30;99.90;;;;;;2096969;28;20427;-70
2022/02/02 02:20:10;;;;;;;20.77;4.30;;;5.30;99.90;;;;;;2097251;28;20035;-70
2022/02/02 02:21:15;;;;;;;24.13;4.68;;;5.30;99.90;;;;;;2096431;28;20107;-70
2022/02/02 02:22:25;;;;;;;23.45;4.80;;;5.30;99.90;;;;;;2099095;28;20036;-69
2022/02/02 02:23:26;;;;;;;23.75;4.45;;;5.40;99.90;;;;;;2106730;28;20051;-70
2022/02/02 02:24:27;;;;;;;23.30;4.57;;;5.30;99.90;;;;;;2105789;28;20066;-70
2022/02/02 02:25:31;;;;;;;25.30;4.97;;;5.40;99.90;;;;;;2105410;28;20109;-74
2022/02/02 02:26:34;;;;;;;22.60;4.53;;;5.40;99.90;;;;;;2106538;28;20375;-70
2022/02/02 02:27:35;;;;;;;28.33;4.53;;;5.40;99.90;;;;;;2105952;28;20139;-69
2022/02/02 02:31:07;;;;;;;23.08;4.32;;;5.40;99.90;;;;;;2105646;28;20078;-70
2022/02/02 02:33:02;;;;;;;23.38;4.70;;;5.40;99.90;;;;;;2105457;28;20073;-69
2022/02/02 02:34:25;;;;;;;22.05;4.22;;;5.40;99.90;;;;;;2106281;28;20039;-71
2022/02/02 02:55:56;;;;;;;24.48;4.20;;;5.70;99.90;;;;;;2105827;28;20024;-70
2022/02/02 02:56:57;;;;;;;23.73;4.88;;;5.60;99.90;;;;;;2098789;28;20029;-70
2022/02/02 02:58:20;;;;;;;22.95;4.45;;;5.70;99.90;;;;;;2106431;28;20527;-70
2022/02/02 02:59:34;;;;;;;23.23;4.65;;;5.70;99.90;;;;;;2106505;28;20651;-70
2022/02/02 03:00:55;;;;;;;18.08;3.78;;;5.70;99.90;;;;;;2106013;28;20040;-71
2022/02/02 03:35:02;;;;;;;19.05;3.80;;;5.60;99.90;;;;;;2106174;28;20078;-70
2022/02/02 03:51:43;;;;;;;23.80;4.35;;;5.60;99.90;;;;;;2105110;28;20518;-71
2022/02/02 03:58:30;;;;;;;23.30;3.80;;;5.70;99.90;;;;;;2099971;28;20138;-71
2022/02/02 04:05:36;;;;;;;24.85;4.55;;;5.80;99.90;;;;;;2096736;28;20040;-71
2022/02/02 04:06:54;;;;;;;28.90;4.53;;;5.80;99.90;;;;;;2097809;28;20048;-70
2022/02/02 04:08:08;;;;;;;21.33;4.28;;;5.80;99.90;;;;;;2097151;28;20036;-70
2022/02/02 04:09:08;;;;;;;25.08;4.65;;;5.80;99.90;;;;;;2090409;28;20473;-71
2022/02/02 04:10:09;;;;;;;22.88;4.15;;;5.80;99.90;;;;;;2097283;28;20036;-70
2022/02/02 04:11:25;;;;;;;21.75;4.57;;;5.80;99.90;;;;;;2096810;28;20052;-71
2022/02/02 04:14:01;;;;;;;29.17;4.68;;;5.80;99.90;;;;;;2097160;28;20433;-71
2022/02/02 04:17:42;;;;;;;28.73;5.15;;;5.70;99.90;;;;;;2097515;28;20028;-71
2022/02/02 04:55:42;;;;;;;23.90;4.10;;;5.40;99.90;;;;;;2097709;28;20044;-71
2022/02/02 04:56:41;;;;;;;;;;;5.40;99.90;;;;;;2086415;28;20052;-71
2022/02/02 05:02:04;;;;;;;19.48;3.80;;;5.40;99.90;;;;;;2097464;28;20043;-70
2022/02/02 05:03:39;;;;;;;24.65;4.07;;;5.30;99.90;;;;;;2096869;28;20044;-70
2022/02/02 05:04:15;;;;;;;22.92;3.55;;;5.30;99.90;;;;;;2086027;28;20079;-71
2022/02/02 05:06:33;;;;;;;20.73;3.45;;;5.30;99.90;;;;;;2096895;28;20032;-72
2022/02/02 05:07:43;;;;;;;24.77;3.85;;;5.20;99.90;;;;;;2088463;28;20024;-70
2022/02/02 05:08:58;;;;;;;24.25;4.32;;;5.20;99.90;;;;;;2090181;28;20816;-71
2022/02/02 05:14:49;;;;;;;24.77;4.20;;;5.20;99.90;;;;;;2097538;28;20111;-71
2022/02/02 05:15:47;;;;;;;24.75;3.97;;;5.20;99.90;;;;;;2096441;28;21419;-71
2022/02/02 05:20:03;;;;;;;26.08;3.88;;;5.20;99.90;;;;;;2096863;28;20025;-71
2022/02/02 05:27:01;;;;;;;23.88;4.07;;;5.20;99.90;;;;;;2096667;28;20025;-70
2022/02/02 05:28:43;;;;;;;23.38;3.90;;;5.20;99.90;;;;;;2097162;28;20591;-71
2022/02/02 05:43:33;;;;;;;20.10;3.83;;;5.10;99.90;;;;;;2096589;28;20078;-70
2022/02/02 05:51:00;;;;;;;20.40;3.75;;;5.10;99.90;;;;;;2096964;28;20555;-72
2022/02/02 05:52:05;;;;;;;19.88;3.58;;;5.10;99.90;;;;;;2096180;28;20032;-72
2022/02/02 05:53:06;;;;;;;26.05;4.15;;;5.10;99.90;;;;;;2088296;28;20028;-71
2022/02/02 05:54:08;;;;;;;17.95;3.70;;;5.10;99.90;;;;;;2097320;28;20024;-72
2022/02/02 05:55:13;;;;;;;29.13;4.57;;;5.10;99.90;;;;;;2089819;28;20051;-72
2022/02/02 05:56:14;;;;;;;22.13;4.07;;;5.10;99.90;;;;;;2090030;28;20032;-72
2022/02/02 05:57:20;;;;;;;26.13;4.00;;;5.10;99.90;;;;;;2089792;28;20018;-71
2022/02/02 05:58:27;;;;;;;26.63;4.22;;;5.10;99.90;;;;;;2090778;28;20052;-72
2022/02/02 05:59:32;;;;;;;22.25;4.18;;;5.10;99.90;;;;;;2090190;28;20029;-72
2022/02/02 06:00:36;;;;;;;24.70;3.92;;;5.10;99.90;;;;;;2082878;28;20087;-71
2022/02/02 06:01:49;;;;;;;25.05;4.20;;;5.10;99.90;;;;;;2090886;28;20032;-71
2022/02/02 06:02:54;;;;;;;27.55;4.60;;;5.00;99.90;;;;;;2091919;28;20033;-71
2022/02/02 06:04:05;;;;;;;28.08;4.45;;;5.10;99.90;;;;;;2082827;28;20029;-71
2022/02/02 06:05:08;;;;;;;22.65;4.45;;;5.10;99.90;;;;;;2084054;28;20035;-71
2022/02/02 06:06:12;;;;;;;26.27;4.35;;;5.00;99.90;;;;;;2090098;28;20436;-71
2022/02/02 06:07:16;;;;;;;20.55;4.00;;;5.10;99.90;;;;;;2090250;28;20031;-71
2022/02/02 06:08:17;;;;;;;32.47;4.28;;;5.10;99.90;;;;;;2098312;28;20472;-72
2022/02/02 06:09:19;;;;;;;22.42;4.65;;;5.10;99.90;;;;;;2098253;28;20044;-72
2022/02/02 06:10:20;;;;;;;23.90;4.38;;;5.00;99.90;;;;;;2098239;28;20029;-71
2022/02/02 06:11:24;;;;;;;26.02;4.53;;;5.00;99.90;;;;;;2099099;28;20034;-71
2022/02/02 06:12:25;;;;;;;24.77;4.57;;;5.00;99.90;;;;;;2099354;28;20067;-71
2022/02/02 06:13:39;;;;;;;25.17;4.07;;;5.00;99.90;;;;;;2090315;28;20571;-71
2022/02/02 06:14:43;;;;;;;30.75;4.80;;;5.00;99.90;;;;;;2099507;28;20016;-71
2022/02/02 06:15:44;;;;;;;22.45;4.55;;;5.00;99.90;;;;;;2098619;28;20032;-72
2022/02/02 06:16:47;;;;;;;24.10;4.10;;;5.00;99.90;;;;;;2099829;28;20086;-72
2022/02/02 06:17:52;;;;;;;24.42;4.10;;;5.10;99.90;;;;;;2099901;28;20028;-72
2022/02/02 06:19:02;;;;;;;25.92;4.25;;;5.10;99.90;;;;;;2091148;28;20495;-73
2022/02/02 06:20:03;;;;;;;23.75;4.07;;;5.10;99.90;;;;;;2086134;28;20029;-71
2022/02/02 06:21:06;;;;;;;20.90;3.92;;;5.10;99.90;;;;;;2082974;28;20069;-71
2022/02/02 06:22:22;;;;;;;24.00;4.05;;;5.10;99.90;;;;;;2091435;28;20107;-71
2022/02/02 06:23:38;;;;;;;24.17;4.07;;;5.10;99.90;;;;;;2099164;28;20465;-71
2022/02/02 06:25:05;;;;;;;25.85;4.53;;;5.10;99.90;;;;;;2099231;28;20074;-71
2022/02/02 06:26:13;;;;;;;23.17;4.53;;;5.10;99.90;;;;;;2099353;28;20598;-71
2022/02/02 06:27:23;;;;;;;29.08;4.38;;;5.10;99.90;;;;;;2100533;28;20028;-71
2022/02/02 06:28:25;;;;;;;22.48;4.85;;;5.10;99.90;;;;;;2099936;28;20534;-71
2022/02/02 06:29:29;;;;;;;20.00;4.07;;;5.20;99.90;;;;;;2091699;28;20116;-72
2022/02/02 06:30:31;;;;;;;19.50;3.97;;;5.20;99.90;;;;;;2091919;28;20559;-72
2022/02/02 06:31:35;;;;;;;21.27;4.07;;;5.20;99.90;;;;;;2098682;28;20040;-71
2022/02/02 06:32:50;;;;;;;20.30;4.10;;;5.20;99.90;;;;;;2082929;28;20087;-71
2022/02/02 06:33:59;;;;;;;26.58;4.57;;;5.20;99.90;;;;;;2092392;28;20032;-71
2022/02/02 06:35:03;;;;;;;22.85;4.40;;;5.20;99.90;;;;;;2098816;28;20146;-72
2022/02/02 06:36:08;;;;;;;23.83;4.45;;;5.20;99.90;;;;;;2098704;28;20051;-72
2022/02/02 06:37:11;;;;;;;19.08;4.00;;;5.20;99.90;;;;;;2099221;28;20032;-72
2022/02/02 06:38:16;;;;;;;23.77;4.28;;;5.20;99.90;;;;;;2099583;28;20028;-71
2022/02/02 06:39:17;;;;;;;18.95;4.07;;;5.10;99.90;;;;;;2098672;28;20033;-71
2022/02/02 06:40:19;;;;;;;19.60;4.53;;;5.10;99.90;;;;;;2090776;28;20025;-71
2022/02/02 06:41:24;;;;;;;23.75;5.07;;;5.10;99.90;;;;;;2099040;28;20025;-71
2022/02/02 06:42:25;;;;;;;19.90;4.18;;;5.20;99.90;;;;;;2091231;28;20091;-72
2022/02/02 06:43:27;;;;;;;25.35;4.60;;;5.10;99.90;;;;;;2090917;28;20191;-72
2022/02/02 06:44:29;;;;;;;20.45;5.57;;;5.20;99.90;;;;;;2099003;28;20025;-71
2022/02/02 06:45:30;;;;;;;19.00;4.78;;;5.10;99.90;;;;;;2098681;28;20056;-72
2022/02/02 06:46:31;;;;;;;24.20;4.53;;;5.10;99.90;;;;;;2099862;28;20020;-71
2022/02/02 06:47:34;;;;;;;22.98;4.35;;;5.10;99.90;;;;;;2091278;28;20488;-72
2022/02/02 06:48:35;;;;;;;21.67;4.35;;;5.10;99.90;;;;;;2091199;28;20044;-71
2022/02/02 06:49:38;;;;;;;23.73;4.72;;;5.20;99.90;;;;;;2091004;28;20029;-72
2022/02/02 06:50:42;;;;;;;20.65;4.60;;;5.20;99.90;;;;;;2083638;28;20022;-72
2022/02/02 06:51:56;;;;;;;19.70;4.22;;;5.20;99.90;;;;;;2090839;28;20054;-72
2022/02/02 06:53:30;;;;;;;20.65;4.03;;;5.10;99.90;;;;;;2099179;28;20055;-74
2022/02/02 06:55:05;;;;;;;23.67;4.30;;;5.20;99.90;;;;;;2099129;28;20028;-74
2022/02/02 06:58:08;;;;;;;25.77;4.90;;;5.20;99.90;;;;;;2098951;28;20120;-72
2022/02/02 06:59:36;;;;;;;22.40;4.65;;;5.20;99.90;;;;;;2099092;28;20056;-71
2022/02/02 07:01:11;;;;;;;24.70;4.55;;;5.20;99.90;;;;;;2098860;28;20119;-71
2022/02/02 07:03:58;;;;;;;20.98;3.83;;;5.20;99.90;;;;;;2099286;28;20029;-72
2022/02/02 07:06:41;;;;;;;26.58;4.40;;;5.20;99.90;;;;;;2097866;28;20076;-72
2022/02/02 07:10:33;;;;;;;24.67;4.10;;;5.30;99.90;;;;;;2098799;28;20678;-71
2022/02/02 07:12:36;;;;;;;25.67;4.97;;;5.20;99.90;;;;;;2099056;28;20052;-72
2022/02/02 07:13:15;;;;;;;24.15;4.15;;;5.30;99.90;;;;;;2090744;28;20028;-71
2022/02/02 07:14:26;;;;;;;21.17;3.95;;;5.20;99.90;;;;;;2097713;28;20430;-70
2022/02/02 07:20:17;;;;;;;22.25;4.50;;;5.30;99.90;;;;;;2098402;28;20035;-73
2022/02/02 07:21:46;;;;;;;26.85;4.60;;;5.20;99.90;;;;;;2098365;28;20024;-75
2022/02/02 07:26:07;;;;;;;26.58;4.65;;;5.30;99.90;;;;;;2081240;28;20033;-75
2022/02/02 07:27:55;;;;;;;25.83;4.40;;;5.30;99.90;;;;;;2101153;28;20031;-74
2022/02/02 07:28:41;;;;;;;23.77;4.10;;;5.20;99.90;;;;;;2098872;28;20036;-72
2022/02/02 07:33:12;;;;;;;27.25;4.50;;;5.10;99.90;;;;;;2105979;28;20454;-71
2022/02/02 07:34:35;;;;;;;21.67;4.20;;;5.10;99.90;;;;;;2106776;28;20074;-72
2022/02/02 07:37:00;;;;;;;23.25;4.25;;;5.10;99.90;;;;;;2107515;28;20067;-75
2022/02/02 07:38:16;;;;;;;25.85;4.38;;;5.10;99.90;;;;;;2107848;28;20047;-73
2022/02/02 07:39:17;;;;;;;22.17;4.10;;;5.10;99.90;;;;;;2100958;28;20056;-73
2022/02/02 07:40:20;;;;;;;18.55;3.80;;;5.10;99.90;;;;;;2097855;28;20538;-72
2022/02/02 07:41:35;;;;;;;22.52;4.25;;;5.20;99.90;;;;;;2106785;28;20499;-72
2022/02/02 07:42:50;;;;;;;25.52;4.65;;;5.10;99.90;;;;;;2098392;28;20081;-74
2022/02/02 07:44:01;;;;;;;20.65;4.20;;;5.10;99.90;;;;;;2101158;28;20036;-72
2022/02/02 07:45:08;;;;;;;24.83;4.30;;;5.10;99.90;;;;;;2107632;28;20431;-75
2022/02/02 07:46:14;;;;;;;24.45;4.50;;;5.10;99.90;;;;;;2106161;28;20036;-71
2022/02/02 07:47:17;;;;;;;24.65;4.50;;;5.10;99.90;;;;;;2106770;28;20028;-74
2022/02/02 07:48:18;;;;;;;20.40;4.13;;;5.10;99.90;;;;;;2106799;28;20177;-71
2022/02/02 07:49:33;;;;;;;21.88;4.00;;;5.10;99.90;;;;;;2106535;28;20517;-73
2022/02/02 07:50:36;;;;;;;19.98;4.22;;;5.00;99.90;;;;;;2106851;28;20016;-74
2022/02/02 07:51:38;;;;;;;21.63;4.20;;;5.00;99.90;;;;;;2106491;28;20083;-71
2022/02/02 07:52:42;;;;;;;23.45;4.80;;;5.00;99.90;;;;;;2106647;28;20065;-71
2022/02/02 07:53:54;;;;;;;22.50;4.50;;;5.00;99.90;;;;;;2107280;28;20095;-72
2022/02/02 07:54:58;;;;;;;25.77;4.13;;;5.00;99.90;;;;;;2106524;28;20032;-73
2022/02/02 07:56:03;;;;;;;21.23;4.47;;;5.00;99.90;;;;;;2106514;28;20028;-69
2022/02/02 07:57:19;;;;;;;16.85;3.40;;;5.00;99.90;;;;;;2107133;28;20067;-73
2022/02/02 07:58:28;;;;;;;19.52;3.63;;;5.00;99.90;;;;;;2106807;28;20036;-71
2022/02/02 07:59:44;;;;;;;16.55;3.63;;;5.00;99.90;;;;;;2106225;28;20111;-76
2022/02/02 08:00:45;;;;;;;25.27;4.65;;;5.00;99.90;;;;;;2104438;28;20024;-74
2022/02/02 08:01:52;;;;;;;21.05;4.40;;;5.00;99.90;;;;;;2106598;28;20612;-73
2022/02/02 08:03:57;;;;;;;20.45;3.88;;;5.00;99.90;;;;;;2107627;28;20040;-71
2022/02/02 08:05:00;;;;;;;24.15;4.20;;;5.00;99.90;;;;;;2109397;28;20034;-70
2022/02/02 08:06:02;;;;;;;27.27;3.70;;;5.00;99.90;;;;;;2109999;28;20050;-72
2022/02/02 08:07:04;;;;;;;21.50;3.92;;;4.90;99.90;;;;;;2110127;28;20032;-71
2022/02/02 08:08:15;;;;;;;19.85;3.70;;;4.90;99.90;;;;;;2109940;28;20860;-70
2022/02/02 08:09:37;;;;;;;22.27;4.28;;;4.90;99.90;;;;;;2109007;28;20101;-70
2022/02/02 08:10:39;;;;;;;21.92;4.05;;;4.90;99.90;;;;;;2108472;28;20020;-70
2022/02/02 08:11:40;;;;;;;19.83;3.92;;;4.90;99.90;;;;;;2109542;28;20020;-70
2022/02/02 08:12:55;;;;;;;22.42;3.88;;;4.90;99.90;;;;;;2109376;28;20022;-72
2022/02/02 08:13:59;;;;;;;20.52;4.28;;;4.80;99.90;;;;;;2103276;28;20028;-71
2022/02/02 08:15:00;;;;;;;23.92;4.35;;;4.90;99.90;;;;;;2101398;28;20029;-73
2022/02/02 08:16:04;;;;;;;19.17;4.10;;;4.90;99.90;;;;;;2100713;28;20059;-70
2022/02/02 08:17:06;;;;;;;20.77;4.28;;;4.90;99.90;;;;;;2108389;28;20039;-71
2022/02/02 08:18:07;;;;;;;20.48;4.38;;;4.80;99.90;;;;;;2102353;28;20093;-73
2022/02/02 08:19:07;;;;;;;19.08;3.72;;;4.90;99.90;;;;;;2102182;28;20591;-74
2022/02/02 08:20:08;;;;;;;26.00;4.15;;;4.90;99.90;;;;;;2100475;28;20131;-72
2022/02/02 08:21:09;;;;;;;18.58;4.35;;;4.80;99.90;;;;;;2109162;28;20542;-73
2022/02/02 08:22:10;;;;;;;21.63;4.15;;;4.90;99.90;;;;;;2108737;28;20085;-73
2022/02/02 08:23:10;;;;;;;21.38;4.68;;;4.80;99.90;;;;;;2109280;28;20027;-73
2022/02/02 08:24:15;;;;;;;18.77;3.80;;;4.90;99.90;;;;;;2106297;28;20032;-72
2022/02/02 08:25:27;;;;;;;24.02;4.43;;;4.90;99.90;;;;;;2107176;28;20035;-72
2022/02/02 08:26:34;;;;;;;20.65;4.90;;;4.90;99.90;;;;;;2096422;28;20023;-71
2022/02/02 08:27:40;;;;;;;24.67;4.43;;;4.80;99.90;;;;;;2098265;28;20021;-72
2022/02/02 08:28:43;;;;;;;23.33;4.68;;;4.80;99.90;;;;;;2103564;28;20016;-73
2022/02/02 08:29:43;;;;;;;25.67;4.63;;;4.80;99.90;;;;;;2098691;28;20419;-69
2022/02/02 08:30:45;;;;;;;22.75;4.55;;;4.80;99.90;;;;;;2098248;28;20115;-71
2022/02/02 08:31:46;;;;;;;22.02;4.57;;;4.70;99.90;;;;;;2106377;28;20095;-71
2022/02/02 08:32:53;;;;;;;26.23;4.78;;;4.80;99.90;;;;;;2098582;28;20027;-73
2022/02/02 08:33:58;;;;;;;26.92;4.78;;;4.80;99.90;;;;;;2100526;28;20063;-72
2022/02/02 08:35:00;;;;;;;23.45;4.70;;;4.70;99.90;;;;;;2099465;28;20028;-72
2022/02/02 08:36:06;;;;;;;21.88;4.28;;;4.80;99.90;;;;;;2100118;28;20075;-71
2022/02/02 08:37:07;;;;;;;25.55;5.82;;;4.70;99.90;;;;;;2103054;28;20028;-73
2022/02/02 08:39:51;;;;;;;25.83;4.25;;;4.70;99.90;;;;;;2098608;28;20658;-72
2022/02/02 08:40:56;;;;;;;22.83;4.85;;;4.80;99.90;;;;;;2115624;28;20104;-73
2022/02/02 08:42:02;;;;;;;20.10;4.82;;;4.80;99.90;;;;;;2108151;28;20032;-71
2022/02/02 08:43:27;;;;;;;24.75;4.75;;;4.80;99.90;;;;;;2097826;28;20086;-72
2022/02/02 08:44:39;;;;;;;23.95;5.05;;;4.80;99.90;;;;;;2094005;28;20032;-73
2022/02/02 08:45:43;;;;;;;22.50;4.57;;;4.90;99.90;;;;;;2099993;28;20028;-71
2022/02/02 08:46:54;;;;;;;24.67;5.30;;;4.90;99.90;;;;;;2098847;28;20028;-72
2022/02/02 08:48:02;;;;;;;23.50;4.60;;;4.90;99.90;;;;;;2099800;28;20028;-72
2022/02/02 08:49:07;;;;;;;26.27;4.85;;;4.90;99.90;;;;;;2105910;28;20032;-71
2022/02/02 08:50:08;;;;;;;22.80;4.70;;;4.90;99.90;;;;;;2097979;28;20118;-71
2022/02/02 08:51:14;;;;;;;24.65;4.97;;;5.00;99.90;;;;;;2106014;28;20040;-70
2022/02/02 08:52:15;;;;;;;24.48;4.50;;;5.00;99.90;;;;;;2101181;28;20052;-71
2022/02/02 08:54:44;;;;;;;26.30;4.95;;;5.00;99.90;;;;;;2108778;28;20067;-71
2022/02/02 08:56:00;;;;;;;28.40;5.07;;;5.00;99.90;;;;;;2106907;28;20031;-72
2022/02/02 08:57:25;;;;;;;21.20;4.50;;;5.00;99.90;;;;;;2106417;28;20122;-73
2022/02/02 08:58:45;;;;;;;22.10;5.00;;;5.00;99.90;;;;;;2104500;28;20024;-74
2022/02/02 08:59:58;;;;;;;32.33;5.05;;;5.10;99.90;;;;;;2094193;28;20113;-73
2022/02/02 09:01:07;;;;;;;23.92;4.80;;;5.10;99.90;;;;;;2090530;28;20083;-71
2022/02/02 09:02:15;;;;;;;25.60;4.82;;;5.00;99.90;;;;;;2105963;28;20103;-72
2022/02/02 09:06:00;;;;;;;22.58;4.53;;;5.20;99.90;;;;;;2106690;28;20044;-73
2022/02/02 09:07:00;;;;;;;23.75;4.57;;;5.20;99.90;;;;;;2106634;28;20031;-72
2022/02/02 09:08:04;;;;;;;20.50;4.10;;;5.10;99.90;;;;;;2104901;28;20074;-74
2022/02/02 09:09:14;;;;;;;21.98;4.28;;;5.10;99.90;;;;;;2107010;28;20432;-73
2022/02/02 09:19:58;;;;;;;25.08;4.30;;;5.10;99.90;;;;;;2106103;28;20024;-73
2022/02/02 09:24:47;;;;;;;23.85;4.88;;;5.30;99.90;;;;;;2106783;28;20574;-72
2022/02/02 09:26:20;;;;;;;25.40;4.75;;;5.30;99.90;;;;;;2099388;28;20033;-72
2022/02/02 09:31:49;;;;;;;24.17;4.65;;;5.30;99.90;;;;;;2105735;28;20020;-71
2022/02/02 09:34:11;;;;;;;24.42;4.63;;;5.40;99.90;;;;;;2106877;28;20035;-73
2022/02/02 09:35:12;;;;;;;21.25;4.50;;;5.30;99.90;;;;;;2106540;28;20446;-70
2022/02/02 09:36:13;;;;;;;20.20;4.50;;;5.30;99.90;;;;;;2106869;28;20104;-72
2022/02/02 09:37:16;;;;;;;20.88;4.38;;;5.30;99.90;;;;;;2106373;28;20058;-73
2022/02/02 09:38:17;;;;;;;20.15;4.28;;;5.30;99.90;;;;;;2106596;28;20083;-72
2022/02/02 09:39:21;;;;;;;20.85;4.38;;;5.30;99.90;;;;;;2107156;28;20032;-72
2022/02/02 09:41:12;;;;;;;25.02;4.88;;;5.30;99.90;;;;;;2106663;28;20028;-72
2022/02/02 09:42:01;;;;;;;27.92;5.07;;;5.40;99.90;;;;;;2105623;28;20067;-73
2022/02/02 09:43:02;;;;;;;;;;;5.40;99.90;;;;;;2106166;28;20813;-72
2022/02/02 09:44:09;;;;;;;23.05;4.60;;;5.50;99.90;;;;;;2105933;28;19908;-71
2022/02/02 09:45:16;;;;;;;24.92;4.63;;;5.50;99.90;;;;;;2105508;28;20059;-71
2022/02/02 09:46:20;;;;;;;21.95;4.30;;;5.60;99.90;;;;;;2105455;28;20535;-71
2022/02/02 09:47:30;;;;;;;24.00;4.40;;;5.60;99.90;;;;;;2106132;28;20433;-73